createdAt,value
2018-07-17T00:00:00.519Z,19.10
2018-07-17T00:00:33.699Z,19.10
2018-07-17T00:01:06.499Z,19.10
2018-07-17T00:01:39.299Z,19.00
2018-07-17T00:02:12.318Z,19.00
2018-07-17T00:02:44.978Z,19.00
2018-07-17T00:03:17.703Z,19.00
2018-07-17T00:03:50.998Z,19.00
2018-07-17T00:04:56.382Z,18.90
2018-07-17T00:05:29.287Z,18.90
2018-07-17T00:06:02.128Z,18.90
2018-07-17T00:06:34.919Z,18.90
2018-07-17T00:07:07.653Z,18.90
2018-07-17T00:07:40.600Z,18.90
2018-07-17T00:08:13.319Z,18.90
2018-07-17T00:08:46.171Z,18.90
2018-07-17T00:09:18.858Z,18.90
2018-07-17T00:09:51.535Z,18.90
2018-07-17T00:10:24.211Z,18.90
2018-07-17T00:10:56.925Z,18.90
2018-07-17T00:11:30.314Z,18.90
2018-07-17T00:12:03.270Z,18.90
2018-07-17T00:12:36.377Z,18.90
2018-07-17T00:13:09.170Z,19.00
2018-07-17T00:13:42.071Z,19.00
2018-07-17T00:14:14.735Z,19.00
2018-07-17T00:14:47.378Z,19.00
2018-07-17T00:15:20.056Z,19.00
2018-07-17T00:15:52.707Z,19.00
2018-07-17T00:16:25.430Z,19.00
2018-07-17T00:16:58.189Z,19.00
2018-07-17T00:18:04.068Z,19.00
2018-07-17T00:18:37.259Z,19.10
2018-07-17T00:19:09.987Z,19.10
2018-07-17T00:19:42.695Z,19.10
2018-07-17T00:20:15.395Z,19.10
2018-07-17T00:20:48.071Z,19.10
2018-07-17T00:21:20.722Z,19.10
2018-07-17T00:21:53.382Z,19.10
2018-07-17T00:22:26.070Z,19.10
2018-07-17T00:22:58.916Z,19.10
2018-07-17T00:23:31.915Z,19.10
2018-07-17T00:24:04.789Z,19.10
2018-07-17T00:24:37.545Z,19.10
2018-07-17T00:25:10.311Z,19.20
2018-07-17T00:25:42.991Z,19.20
2018-07-17T00:26:15.698Z,19.10
2018-07-17T00:26:48.358Z,19.10
2018-07-17T00:27:21.062Z,19.20
2018-07-17T00:27:53.718Z,19.10
2018-07-17T00:28:26.406Z,19.10
2018-07-17T00:29:32.293Z,19.10
2018-07-17T00:30:05.183Z,19.10
2018-07-17T00:30:38.014Z,19.10
2018-07-17T00:31:10.738Z,19.10
2018-07-17T00:31:43.423Z,19.10
2018-07-17T00:32:16.146Z,19.10
2018-07-17T00:32:48.866Z,19.10
2018-07-17T00:33:21.560Z,19.20
2018-07-17T00:33:54.210Z,19.20
2018-07-17T00:34:27.465Z,19.20
2018-07-17T00:35:00.309Z,19.20
2018-07-17T00:36:06.199Z,19.20
2018-07-17T00:36:38.950Z,19.20
2018-07-17T00:37:11.735Z,19.20
2018-07-17T00:37:44.428Z,19.10
2018-07-17T00:38:17.374Z,19.20
2018-07-17T00:38:50.101Z,19.10
2018-07-17T00:39:22.807Z,19.10
2018-07-17T00:39:55.449Z,19.10
2018-07-17T00:40:28.252Z,19.10
2018-07-17T00:41:01.277Z,19.10
2018-07-17T00:41:34.127Z,19.10
2018-07-17T00:42:07.090Z,19.10
2018-07-17T00:42:39.871Z,19.10
2018-07-17T00:43:12.543Z,19.10
2018-07-17T00:43:45.203Z,19.10
2018-07-17T00:44:17.906Z,19.10
2018-07-17T00:44:50.658Z,19.10
2018-07-17T00:45:23.319Z,19.10
2018-07-17T00:45:55.987Z,19.10
2018-07-17T00:46:28.738Z,19.10
2018-07-17T00:47:01.578Z,19.20
2018-07-17T00:47:34.383Z,19.10
2018-07-17T00:48:07.295Z,19.10
2018-07-17T00:48:40.024Z,19.20
2018-07-17T00:49:12.706Z,19.20
2018-07-17T00:49:45.339Z,19.20
2018-07-17T00:50:18.051Z,19.20
2018-07-17T00:50:50.703Z,19.20
2018-07-17T00:51:23.326Z,19.20
2018-07-17T00:51:55.999Z,19.20
2018-07-17T00:52:28.831Z,19.20
2018-07-17T00:53:01.712Z,19.20
2018-07-17T00:53:34.543Z,19.20
2018-07-17T00:54:07.358Z,19.20
2018-07-17T00:54:40.119Z,19.20
2018-07-17T00:55:12.850Z,19.20
2018-07-17T00:55:45.544Z,19.20
2018-07-17T00:56:18.182Z,19.20
2018-07-17T00:56:50.854Z,19.20
2018-07-17T00:57:23.554Z,19.30
2018-07-17T00:57:56.215Z,19.20
2018-07-17T00:58:29.433Z,19.30
2018-07-17T00:59:02.301Z,19.30
2018-07-17T00:59:35.280Z,19.20
2018-07-17T01:00:08.503Z,19.20
2018-07-17T01:00:43.292Z,19.20
2018-07-17T01:01:21.663Z,19.20
2018-07-17T01:02:00.116Z,19.20
2018-07-17T01:02:38.654Z,19.20
2018-07-17T01:03:16.983Z,19.20
2018-07-17T01:03:55.335Z,19.20
2018-07-17T01:04:33.830Z,19.20
2018-07-17T01:05:50.620Z,19.20
2018-07-17T01:06:29.178Z,19.20
2018-07-17T01:07:07.523Z,19.20
2018-07-17T01:07:45.700Z,19.20
2018-07-17T01:08:24.026Z,19.20
2018-07-17T01:09:02.414Z,19.20
2018-07-17T01:09:40.864Z,19.10
2018-07-17T01:10:19.167Z,19.20
2018-07-17T01:10:58.066Z,19.20
2018-07-17T01:11:36.502Z,19.20
2018-07-17T01:12:12.586Z,19.20
2018-07-17T01:12:44.710Z,19.10
2018-07-17T01:13:23.289Z,19.10
2018-07-17T01:14:02.883Z,19.10
2018-07-17T01:14:55.265Z,19.10
2018-07-17T01:15:32.503Z,19.10
2018-07-17T01:16:05.381Z,19.10
2018-07-17T01:16:38.035Z,19.10
2018-07-17T01:17:10.967Z,19.10
2018-07-17T01:17:43.786Z,19.10
2018-07-17T01:18:16.459Z,19.10
2018-07-17T01:18:49.247Z,19.10
2018-07-17T01:19:22.085Z,19.10
2018-07-17T01:19:54.896Z,19.00
2018-07-17T01:20:27.756Z,19.00
2018-07-17T01:21:00.475Z,19.10
2018-07-17T01:21:33.106Z,19.00
2018-07-17T01:22:05.781Z,19.10
2018-07-17T01:22:38.450Z,19.00
2018-07-17T01:23:11.134Z,19.00
2018-07-17T01:23:43.855Z,19.00
2018-07-17T01:24:16.511Z,19.00
2018-07-17T01:24:49.884Z,19.00
2018-07-17T01:25:22.684Z,19.00
2018-07-17T01:25:55.887Z,19.00
2018-07-17T01:26:28.655Z,19.00
2018-07-17T01:27:01.359Z,19.00
2018-07-17T01:27:34.083Z,19.00
2018-07-17T01:28:06.730Z,19.00
2018-07-17T01:28:39.398Z,19.00
2018-07-17T01:29:12.059Z,19.00
2018-07-17T01:29:44.794Z,19.10
2018-07-17T01:30:17.528Z,19.10
2018-07-17T01:30:50.362Z,19.00
2018-07-17T01:31:23.326Z,19.10
2018-07-17T01:31:56.122Z,19.00
2018-07-17T01:32:28.952Z,19.10
2018-07-17T01:33:01.691Z,19.10
2018-07-17T01:33:34.402Z,19.10
2018-07-17T01:34:07.059Z,19.00
2018-07-17T01:34:39.689Z,19.10
2018-07-17T01:35:12.358Z,19.00
2018-07-17T01:35:45.026Z,19.10
2018-07-17T01:36:50.799Z,19.10
2018-07-17T01:37:23.610Z,19.10
2018-07-17T01:37:56.659Z,19.10
2018-07-17T01:38:29.576Z,19.10
2018-07-17T01:39:02.266Z,19.10
2018-07-17T01:39:34.902Z,19.00
2018-07-17T01:40:07.558Z,19.00
2018-07-17T01:40:40.206Z,19.00
2018-07-17T01:41:12.850Z,19.10
2018-07-17T01:41:45.658Z,19.10
2018-07-17T01:42:18.931Z,19.00
2018-07-17T01:42:52.128Z,19.10
2018-07-17T01:43:24.883Z,19.10
2018-07-17T01:43:57.683Z,19.00
2018-07-17T01:44:30.459Z,19.00
2018-07-17T01:45:03.215Z,19.00
2018-07-17T01:45:35.878Z,19.10
2018-07-17T01:46:08.510Z,19.00
2018-07-17T01:46:41.194Z,19.00
2018-07-17T01:47:13.879Z,19.00
2018-07-17T01:47:46.598Z,19.00
2018-07-17T01:48:52.150Z,19.00
2018-07-17T01:49:24.925Z,19.00
2018-07-17T01:49:57.913Z,19.00
2018-07-17T01:50:30.674Z,19.00
2018-07-17T01:51:03.735Z,19.00
2018-07-17T01:51:36.395Z,19.00
2018-07-17T01:52:09.042Z,19.00
2018-07-17T01:52:41.674Z,19.00
2018-07-17T01:53:14.320Z,19.00
2018-07-17T01:53:47.018Z,19.00
2018-07-17T01:54:20.158Z,19.00
2018-07-17T01:54:53.626Z,19.00
2018-07-17T01:55:26.387Z,19.00
2018-07-17T01:55:59.542Z,19.00
2018-07-17T01:56:32.251Z,19.00
2018-07-17T01:57:04.954Z,19.00
2018-07-17T01:57:37.642Z,19.00
2018-07-17T01:58:10.278Z,19.00
2018-07-17T01:58:42.950Z,19.00
2018-07-17T01:59:15.642Z,19.00
2018-07-17T01:59:48.439Z,19.00
2018-07-17T02:00:21.359Z,19.00
2018-07-17T02:00:54.159Z,19.00
2018-07-17T02:01:26.968Z,19.00
2018-07-17T02:01:59.783Z,19.00
2018-07-17T02:02:32.503Z,19.00
2018-07-17T02:03:05.231Z,19.00
2018-07-17T02:03:37.894Z,19.00
2018-07-17T02:04:10.582Z,19.00
2018-07-17T02:04:43.306Z,19.00
2018-07-17T02:05:15.991Z,19.00
2018-07-17T02:05:48.933Z,18.90
2018-07-17T02:06:21.950Z,18.90
2018-07-17T02:06:54.699Z,18.90
2018-07-17T02:07:27.535Z,18.90
2018-07-17T02:08:00.642Z,18.90
2018-07-17T02:08:33.310Z,18.90
2018-07-17T02:09:06.387Z,18.90
2018-07-17T02:09:39.142Z,18.90
2018-07-17T02:10:11.784Z,18.90
2018-07-17T02:10:44.457Z,18.90
2018-07-17T02:11:17.102Z,18.90
2018-07-17T02:11:51.198Z,18.90
2018-07-17T02:12:24.363Z,18.90
2018-07-17T02:12:57.153Z,18.90
2018-07-17T02:13:29.968Z,18.90
2018-07-17T02:14:02.783Z,18.90
2018-07-17T02:14:35.518Z,18.90
2018-07-17T02:15:08.247Z,18.90
2018-07-17T02:15:40.911Z,18.90
2018-07-17T02:16:13.592Z,18.90
2018-07-17T02:16:46.247Z,18.90
2018-07-17T02:17:19.222Z,18.90
2018-07-17T02:17:52.549Z,18.90
2018-07-17T02:18:25.401Z,18.90
2018-07-17T02:18:58.395Z,18.90
2018-07-17T02:19:31.151Z,18.90
2018-07-17T02:20:04.513Z,18.90
2018-07-17T02:20:37.210Z,18.90
2018-07-17T02:21:09.863Z,18.80
2018-07-17T02:21:42.526Z,18.90
2018-07-17T02:22:15.224Z,18.90
2018-07-17T02:22:47.907Z,18.90
2018-07-17T02:23:21.218Z,18.90
2018-07-17T02:23:54.475Z,18.90
2018-07-17T02:24:27.481Z,18.90
2018-07-17T02:25:00.279Z,18.90
2018-07-17T02:25:32.985Z,18.90
2018-07-17T02:26:05.674Z,18.90
2018-07-17T02:26:38.350Z,18.90
2018-07-17T02:27:11.069Z,18.80
2018-07-17T02:27:43.723Z,18.90
2018-07-17T02:28:16.371Z,18.80
2018-07-17T02:28:49.142Z,18.90
2018-07-17T02:29:21.978Z,18.90
2018-07-17T02:29:54.802Z,18.80
2018-07-17T02:30:27.893Z,18.90
2018-07-17T02:31:00.626Z,18.90
2018-07-17T02:31:33.364Z,18.90
2018-07-17T02:32:06.283Z,18.90
2018-07-17T02:32:38.922Z,18.90
2018-07-17T02:33:11.559Z,18.90
2018-07-17T02:33:44.206Z,18.90
2018-07-17T02:34:16.880Z,18.80
2018-07-17T02:34:50.485Z,18.90
2018-07-17T02:35:23.354Z,18.80
2018-07-17T02:35:56.213Z,18.80
2018-07-17T02:36:29.139Z,18.80
2018-07-17T02:37:01.955Z,18.80
2018-07-17T02:37:34.602Z,18.90
2018-07-17T02:38:07.270Z,18.80
2018-07-17T02:38:40.002Z,18.80
2018-07-17T02:39:12.711Z,18.80
2018-07-17T02:39:45.399Z,18.80
2018-07-17T02:40:18.183Z,18.80
2018-07-17T02:40:51.031Z,18.80
2018-07-17T02:41:24.041Z,18.80
2018-07-17T02:41:56.831Z,18.70
2018-07-17T02:42:30.008Z,18.80
2018-07-17T02:43:02.598Z,18.80
2018-07-17T02:43:35.418Z,18.80
2018-07-17T02:44:08.079Z,18.70
2018-07-17T02:44:40.764Z,18.70
2018-07-17T02:45:13.479Z,18.70
2018-07-17T02:45:46.135Z,18.70
2018-07-17T02:46:18.875Z,18.70
2018-07-17T02:46:51.937Z,18.70
2018-07-17T02:47:25.276Z,18.70
2018-07-17T02:47:58.165Z,18.70
2018-07-17T02:48:31.054Z,18.70
2018-07-17T02:49:03.786Z,18.70
2018-07-17T02:49:36.435Z,18.70
2018-07-17T02:50:09.082Z,18.70
2018-07-17T02:50:41.770Z,18.70
2018-07-17T02:51:14.507Z,18.70
2018-07-17T02:51:47.142Z,18.70
2018-07-17T02:52:20.676Z,18.70
2018-07-17T02:52:53.431Z,18.70
2018-07-17T02:53:26.299Z,18.70
2018-07-17T02:53:59.281Z,18.70
2018-07-17T02:54:31.975Z,18.70
2018-07-17T02:55:04.687Z,18.70
2018-07-17T02:55:37.379Z,18.70
2018-07-17T02:56:10.055Z,18.70
2018-07-17T02:56:42.700Z,18.70
2018-07-17T02:57:16.121Z,18.70
2018-07-17T02:57:49.474Z,18.70
2018-07-17T02:58:22.486Z,18.70
2018-07-17T02:58:55.391Z,18.70
2018-07-17T02:59:28.178Z,18.70
2018-07-17T03:00:00.898Z,18.70
2018-07-17T03:00:33.543Z,18.70
2018-07-17T03:01:06.212Z,18.70
2018-07-17T03:01:38.851Z,18.70
2018-07-17T03:02:11.491Z,18.70
2018-07-17T03:02:44.191Z,18.70
2018-07-17T03:03:17.004Z,18.70
2018-07-17T03:03:49.859Z,18.70
2018-07-17T03:04:22.656Z,18.60
2018-07-17T03:04:55.424Z,18.60
2018-07-17T03:05:28.209Z,18.70
2018-07-17T03:06:01.068Z,18.60
2018-07-17T03:06:33.714Z,18.60
2018-07-17T03:07:06.389Z,18.60
2018-07-17T03:07:39.046Z,18.60
2018-07-17T03:08:11.746Z,18.60
2018-07-17T03:08:44.471Z,18.60
2018-07-17T03:09:17.175Z,18.60
2018-07-17T03:09:50.310Z,18.60
2018-07-17T03:10:23.358Z,18.50
2018-07-17T03:10:56.126Z,18.60
2018-07-17T03:11:28.886Z,18.60
2018-07-17T03:12:01.585Z,18.60
2018-07-17T03:12:34.232Z,18.50
2018-07-17T03:13:06.902Z,18.60
2018-07-17T03:13:39.622Z,18.50
2018-07-17T03:14:12.275Z,18.50
2018-07-17T03:14:45.035Z,18.50
2018-07-17T03:15:17.988Z,18.50
2018-07-17T03:15:51.239Z,18.50
2018-07-17T03:16:24.063Z,18.50
2018-07-17T03:16:56.893Z,18.50
2018-07-17T03:17:29.986Z,18.50
2018-07-17T03:18:02.674Z,18.50
2018-07-17T03:18:35.359Z,18.50
2018-07-17T03:19:08.036Z,18.50
2018-07-17T03:19:40.831Z,18.50
2018-07-17T03:20:14.145Z,18.50
2018-07-17T03:20:47.011Z,18.50
2018-07-17T03:21:19.852Z,18.50
2018-07-17T03:21:52.630Z,18.60
2018-07-17T03:22:25.367Z,18.50
2018-07-17T03:22:58.038Z,18.60
2018-07-17T03:23:30.727Z,18.50
2018-07-17T03:24:03.427Z,18.60
2018-07-17T03:24:36.221Z,18.60
2018-07-17T03:25:08.838Z,18.60
2018-07-17T03:25:41.518Z,18.60
2018-07-17T03:26:14.500Z,18.60
2018-07-17T03:26:47.383Z,18.60
2018-07-17T03:27:20.247Z,18.60
2018-07-17T03:28:25.767Z,18.70
2018-07-17T03:28:58.422Z,18.70
2018-07-17T03:29:31.090Z,18.70
2018-07-17T03:30:04.539Z,18.70
2018-07-17T03:30:37.207Z,18.70
2018-07-17T03:31:09.880Z,18.70
2018-07-17T03:31:42.649Z,18.70
2018-07-17T03:32:15.524Z,18.60
2018-07-17T03:32:48.361Z,18.70
2018-07-17T03:33:21.710Z,18.70
2018-07-17T03:33:54.427Z,18.70
2018-07-17T03:34:27.607Z,18.70
2018-07-17T03:35:00.675Z,18.70
2018-07-17T03:35:33.540Z,18.70
2018-07-17T03:36:06.436Z,18.70
2018-07-17T03:36:39.187Z,18.70
2018-07-17T03:37:11.898Z,18.70
2018-07-17T03:37:44.569Z,18.70
2018-07-17T03:38:17.226Z,18.70
2018-07-17T03:38:49.958Z,18.70
2018-07-17T03:39:22.642Z,18.70
2018-07-17T03:39:55.297Z,18.80
2018-07-17T03:40:28.270Z,18.70
2018-07-17T03:41:01.385Z,18.70
2018-07-17T03:41:34.312Z,18.80
2018-07-17T03:42:07.371Z,18.80
2018-07-17T03:42:40.174Z,18.80
2018-07-17T03:43:12.818Z,18.80
2018-07-17T03:43:45.490Z,18.80
2018-07-17T03:44:18.154Z,18.80
2018-07-17T03:44:50.807Z,18.80
2018-07-17T03:45:23.466Z,18.80
2018-07-17T03:45:56.233Z,18.80
2018-07-17T03:46:29.406Z,18.80
2018-07-17T03:47:02.247Z,18.80
2018-07-17T03:47:35.083Z,18.80
2018-07-17T03:48:08.274Z,18.80
2018-07-17T03:48:41.018Z,18.80
2018-07-17T03:49:13.710Z,18.80
2018-07-17T03:49:46.383Z,18.80
2018-07-17T03:50:19.122Z,18.80
2018-07-17T03:50:51.809Z,18.80
2018-07-17T03:51:24.518Z,18.80
2018-07-17T03:51:57.763Z,18.80
2018-07-17T03:52:30.930Z,18.80
2018-07-17T03:53:03.770Z,18.80
2018-07-17T03:53:36.837Z,18.80
2018-07-17T03:54:09.642Z,18.80
2018-07-17T03:54:42.326Z,18.80
2018-07-17T03:55:14.970Z,18.80
2018-07-17T03:55:47.622Z,18.80
2018-07-17T03:56:20.299Z,18.80
2018-07-17T03:56:52.930Z,18.80
2018-07-17T03:57:25.674Z,18.80
2018-07-17T03:57:58.698Z,18.80
2018-07-17T03:58:31.502Z,18.80
2018-07-17T03:59:04.316Z,18.80
2018-07-17T03:59:37.130Z,18.80
2018-07-17T04:00:09.842Z,18.80
2018-07-17T04:00:42.509Z,18.80
2018-07-17T04:01:15.171Z,18.80
2018-07-17T04:01:47.822Z,18.80
2018-07-17T04:02:20.570Z,18.80
2018-07-17T04:02:53.417Z,18.80
2018-07-17T04:03:26.125Z,18.80
2018-07-17T04:03:59.670Z,18.90
2018-07-17T04:04:32.502Z,18.90
2018-07-17T04:05:05.685Z,18.80
2018-07-17T04:05:38.514Z,18.90
2018-07-17T04:06:11.411Z,18.90
2018-07-17T04:06:44.110Z,18.80
2018-07-17T04:07:16.763Z,18.90
2018-07-17T04:07:49.406Z,18.90
2018-07-17T04:08:22.099Z,18.80
2018-07-17T04:08:54.766Z,18.80
2018-07-17T04:09:27.565Z,18.80
2018-07-17T04:10:00.459Z,18.90
2018-07-17T04:10:33.295Z,18.80
2018-07-17T04:11:06.509Z,18.80
2018-07-17T04:12:11.822Z,18.80
2018-07-17T04:12:44.475Z,18.80
2018-07-17T04:13:17.174Z,18.80
2018-07-17T04:13:49.790Z,18.80
2018-07-17T04:14:22.435Z,18.80
2018-07-17T04:14:55.079Z,18.80
2018-07-17T04:15:27.935Z,18.90
2018-07-17T04:16:01.202Z,18.80
2018-07-17T04:16:33.961Z,18.80
2018-07-17T04:17:06.742Z,18.80
2018-07-17T04:17:39.524Z,18.90
2018-07-17T04:18:12.223Z,18.90
2018-07-17T04:18:44.867Z,18.90
2018-07-17T04:19:17.939Z,18.90
2018-07-17T04:19:50.619Z,18.90
2018-07-17T04:20:23.273Z,18.90
2018-07-17T04:20:56.047Z,18.90
2018-07-17T04:21:29.060Z,18.90
2018-07-17T04:22:01.787Z,18.90
2018-07-17T04:22:34.825Z,18.90
2018-07-17T04:23:07.597Z,18.90
2018-07-17T04:23:40.655Z,18.90
2018-07-17T04:24:13.387Z,18.90
2018-07-17T04:24:46.039Z,18.90
2018-07-17T04:25:18.983Z,18.90
2018-07-17T04:25:51.666Z,18.90
2018-07-17T04:26:24.350Z,18.90
2018-07-17T04:26:57.133Z,18.90
2018-07-17T04:27:30.283Z,18.90
2018-07-17T04:28:03.062Z,18.90
2018-07-17T04:28:36.146Z,18.90
2018-07-17T04:29:08.887Z,18.90
2018-07-17T04:29:41.659Z,18.90
2018-07-17T04:30:14.375Z,18.90
2018-07-17T04:30:47.023Z,18.90
2018-07-17T04:31:19.690Z,18.90
2018-07-17T04:31:52.473Z,19.00
2018-07-17T04:32:25.082Z,19.00
2018-07-17T04:32:58.377Z,19.00
2018-07-17T04:33:31.575Z,19.00
2018-07-17T04:34:04.715Z,19.00
2018-07-17T04:34:37.495Z,19.00
2018-07-17T04:35:10.267Z,19.00
2018-07-17T04:35:42.923Z,19.00
2018-07-17T04:36:15.574Z,19.00
2018-07-17T04:36:48.246Z,19.00
2018-07-17T04:37:20.911Z,19.00
2018-07-17T04:37:53.794Z,19.00
2018-07-17T04:38:26.620Z,19.00
2018-07-17T04:38:59.452Z,19.10
2018-07-17T04:39:32.227Z,19.10
2018-07-17T04:40:05.397Z,19.10
2018-07-17T04:40:38.132Z,19.10
2018-07-17T04:41:10.823Z,19.20
2018-07-17T04:42:16.103Z,19.10
2018-07-17T04:42:48.799Z,19.20
2018-07-17T04:43:21.422Z,19.20
2018-07-17T04:44:26.739Z,19.20
2018-07-17T04:44:59.679Z,19.30
2018-07-17T04:45:32.500Z,19.20
2018-07-17T04:46:05.614Z,19.20
2018-07-17T04:46:38.391Z,19.30
2018-07-17T04:47:11.048Z,19.30
2018-07-17T04:47:43.711Z,19.30
2018-07-17T04:48:16.389Z,19.30
2018-07-17T04:48:49.031Z,19.40
2018-07-17T04:49:21.670Z,19.30
2018-07-17T04:49:54.318Z,19.40
2018-07-17T04:50:27.100Z,19.40
2018-07-17T04:50:59.923Z,19.40
2018-07-17T04:51:32.878Z,19.40
2018-07-17T04:52:05.569Z,19.50
2018-07-17T04:52:38.265Z,19.50
2018-07-17T04:53:11.006Z,19.60
2018-07-17T04:53:43.736Z,19.60
2018-07-17T04:54:16.379Z,19.70
2018-07-17T04:54:49.067Z,19.70
2018-07-17T04:55:21.711Z,19.70
2018-07-17T04:55:54.374Z,19.70
2018-07-17T04:56:27.363Z,19.80
2018-07-17T04:57:00.133Z,19.70
2018-07-17T04:57:32.964Z,19.70
2018-07-17T04:58:05.754Z,19.80
2018-07-17T04:58:38.509Z,19.80
2018-07-17T04:59:11.214Z,19.80
2018-07-17T04:59:43.858Z,19.80
2018-07-17T05:00:16.558Z,19.80
2018-07-17T05:00:49.202Z,19.90
2018-07-17T05:01:21.914Z,19.90
2018-07-17T05:01:54.645Z,19.80
2018-07-17T05:02:27.738Z,19.90
2018-07-17T05:03:01.051Z,19.90
2018-07-17T05:03:33.923Z,19.80
2018-07-17T05:04:06.741Z,19.80
2018-07-17T05:04:39.522Z,19.90
2018-07-17T05:05:12.230Z,19.90
2018-07-17T05:05:44.879Z,19.90
2018-07-17T05:06:17.671Z,19.90
2018-07-17T05:06:50.331Z,19.90
2018-07-17T05:07:23.003Z,19.80
2018-07-17T05:07:55.670Z,19.90
2018-07-17T05:08:28.633Z,19.80
2018-07-17T05:09:01.485Z,19.90
2018-07-17T05:09:34.339Z,19.90
2018-07-17T05:10:07.799Z,19.80
2018-07-17T05:10:40.501Z,19.90
2018-07-17T05:11:13.214Z,19.90
2018-07-17T05:11:45.838Z,19.90
2018-07-17T05:12:18.534Z,19.90
2018-07-17T05:12:51.628Z,19.90
2018-07-17T05:13:24.582Z,19.90
2018-07-17T05:13:58.355Z,19.90
2018-07-17T05:14:31.400Z,19.90
2018-07-17T05:15:04.843Z,19.90
2018-07-17T05:15:37.651Z,20.00
2018-07-17T05:16:10.354Z,20.00
2018-07-17T05:16:43.023Z,20.00
2018-07-17T05:17:15.647Z,20.00
2018-07-17T05:17:48.327Z,20.00
2018-07-17T05:18:21.034Z,20.00
2018-07-17T05:18:53.678Z,20.00
2018-07-17T05:19:26.395Z,20.00
2018-07-17T05:19:59.203Z,20.10
2018-07-17T05:20:31.963Z,20.10
2018-07-17T05:21:04.827Z,20.10
2018-07-17T05:21:37.982Z,20.10
2018-07-17T05:22:10.678Z,20.10
2018-07-17T05:22:43.345Z,20.10
2018-07-17T05:23:16.014Z,20.10
2018-07-17T05:23:48.682Z,20.10
2018-07-17T05:24:21.351Z,20.10
2018-07-17T05:24:54.014Z,20.20
2018-07-17T05:25:26.808Z,20.20
2018-07-17T05:25:59.660Z,20.20
2018-07-17T05:26:32.470Z,20.20
2018-07-17T05:27:05.755Z,20.30
2018-07-17T05:27:38.498Z,20.30
2018-07-17T05:28:11.134Z,20.30
2018-07-17T05:28:43.798Z,20.30
2018-07-17T05:29:16.455Z,20.30
2018-07-17T05:29:49.095Z,20.40
2018-07-17T05:30:21.779Z,20.40
2018-07-17T05:30:54.437Z,20.40
2018-07-17T05:31:27.207Z,20.40
2018-07-17T05:32:00.522Z,20.40
2018-07-17T05:32:33.329Z,20.40
2018-07-17T05:33:06.138Z,20.40
2018-07-17T05:33:39.056Z,20.40
2018-07-17T05:34:11.731Z,20.40
2018-07-17T05:34:44.391Z,20.40
2018-07-17T05:35:17.096Z,20.40
2018-07-17T05:35:49.807Z,20.40
2018-07-17T05:36:22.482Z,20.40
2018-07-17T05:36:55.155Z,20.40
2018-07-17T05:37:28.184Z,20.40
2018-07-17T05:38:01.015Z,20.40
2018-07-17T05:38:34.290Z,20.40
2018-07-17T05:39:08.264Z,20.40
2018-07-17T05:39:40.932Z,20.40
2018-07-17T05:40:13.607Z,20.50
2018-07-17T05:40:46.438Z,20.50
2018-07-17T05:41:19.095Z,20.50
2018-07-17T05:41:51.782Z,20.50
2018-07-17T05:42:24.478Z,20.50
2018-07-17T05:42:57.303Z,20.50
2018-07-17T05:43:30.550Z,20.50
2018-07-17T05:44:03.370Z,20.50
2018-07-17T05:44:36.192Z,20.60
2018-07-17T05:45:09.022Z,20.60
2018-07-17T05:45:41.726Z,20.60
2018-07-17T05:46:14.402Z,20.60
2018-07-17T05:46:47.043Z,20.60
2018-07-17T05:47:19.734Z,20.70
2018-07-17T05:47:52.451Z,20.80
2018-07-17T05:48:25.143Z,20.70
2018-07-17T05:48:57.950Z,20.70
2018-07-17T05:49:30.773Z,20.60
2018-07-17T05:50:03.625Z,20.70
2018-07-17T05:50:36.403Z,20.70
2018-07-17T05:51:09.146Z,20.70
2018-07-17T05:51:41.843Z,20.70
2018-07-17T05:52:14.510Z,20.70
2018-07-17T05:52:47.183Z,20.70
2018-07-17T05:53:19.863Z,20.70
2018-07-17T05:53:52.555Z,20.70
2018-07-17T05:54:25.221Z,20.70
2018-07-17T05:54:58.156Z,20.70
2018-07-17T05:55:31.255Z,20.70
2018-07-17T05:56:04.105Z,20.70
2018-07-17T05:56:36.903Z,20.70
2018-07-17T05:57:09.627Z,20.60
2018-07-17T05:57:42.312Z,20.60
2018-07-17T05:58:14.985Z,20.70
2018-07-17T05:58:47.644Z,20.70
2018-07-17T05:59:20.543Z,20.70
2018-07-17T05:59:53.194Z,20.70
2018-07-17T06:00:25.979Z,20.70
2018-07-17T06:00:59.176Z,20.70
2018-07-17T06:01:32.224Z,20.70
2018-07-17T06:02:05.103Z,20.70
2018-07-17T06:02:37.954Z,20.70
2018-07-17T06:03:10.647Z,20.70
2018-07-17T06:04:15.880Z,20.70
2018-07-17T06:04:48.574Z,20.70
2018-07-17T06:05:21.243Z,20.70
2018-07-17T06:05:53.903Z,20.70
2018-07-17T06:06:26.898Z,20.80
2018-07-17T06:06:59.722Z,20.80
2018-07-17T06:07:32.946Z,20.80
2018-07-17T06:08:06.011Z,20.80
2018-07-17T06:08:38.799Z,20.80
2018-07-17T06:09:11.684Z,20.80
2018-07-17T06:10:17.088Z,20.80
2018-07-17T06:10:49.751Z,20.80
2018-07-17T06:11:22.413Z,20.90
2018-07-17T06:11:55.127Z,20.80
2018-07-17T06:13:00.969Z,20.80
2018-07-17T06:13:33.766Z,20.90
2018-07-17T06:14:06.590Z,20.90
2018-07-17T06:14:39.306Z,20.90
2018-07-17T06:15:11.995Z,20.90
2018-07-17T06:15:44.695Z,20.90
2018-07-17T06:16:17.807Z,21.00
2018-07-17T06:16:50.483Z,21.00
2018-07-17T06:17:23.154Z,21.00
2018-07-17T06:17:55.787Z,21.00
2018-07-17T06:18:28.614Z,21.00
2018-07-17T06:19:02.049Z,21.00
2018-07-17T06:19:34.859Z,21.00
2018-07-17T06:20:08.119Z,21.00
2018-07-17T06:20:40.847Z,21.10
2018-07-17T06:21:13.535Z,21.00
2018-07-17T06:21:46.192Z,21.00
2018-07-17T06:22:18.879Z,21.00
2018-07-17T06:22:51.579Z,21.10
2018-07-17T06:23:24.308Z,21.20
2018-07-17T06:23:57.398Z,21.20
2018-07-17T06:24:30.359Z,21.20
2018-07-17T06:25:03.538Z,21.20
2018-07-17T06:25:36.295Z,21.20
2018-07-17T06:26:09.027Z,21.20
2018-07-17T06:26:41.710Z,21.20
2018-07-17T06:27:14.637Z,21.20
2018-07-17T06:27:47.267Z,21.20
2018-07-17T06:28:19.925Z,21.20
2018-07-17T06:28:52.606Z,21.20
2018-07-17T06:29:25.295Z,21.20
2018-07-17T06:29:58.260Z,21.30
2018-07-17T06:30:31.087Z,21.30
2018-07-17T06:31:03.989Z,21.30
2018-07-17T06:31:37.069Z,21.30
2018-07-17T06:32:10.027Z,21.30
2018-07-17T06:32:42.699Z,21.30
2018-07-17T06:33:15.351Z,21.40
2018-07-17T06:33:48.171Z,21.40
2018-07-17T06:34:20.816Z,21.40
2018-07-17T06:34:53.531Z,21.40
2018-07-17T06:35:26.492Z,21.40
2018-07-17T06:35:59.330Z,21.40
2018-07-17T06:36:32.091Z,21.40
2018-07-17T06:37:04.874Z,21.50
2018-07-17T06:37:37.705Z,21.50
2018-07-17T06:38:10.380Z,21.50
2018-07-17T06:38:43.125Z,21.50
2018-07-17T06:39:15.742Z,21.50
2018-07-17T06:39:48.390Z,21.60
2018-07-17T06:40:21.075Z,21.60
2018-07-17T06:40:53.727Z,21.60
2018-07-17T06:41:26.466Z,21.60
2018-07-17T06:41:59.695Z,21.70
2018-07-17T06:42:32.490Z,21.70
2018-07-17T06:43:05.292Z,21.70
2018-07-17T06:43:38.071Z,21.70
2018-07-17T06:44:10.762Z,21.80
2018-07-17T06:44:43.467Z,21.80
2018-07-17T06:45:16.115Z,21.90
2018-07-17T06:45:48.791Z,21.80
2018-07-17T06:46:21.487Z,21.90
2018-07-17T06:46:54.155Z,21.90
2018-07-17T06:47:27.546Z,21.90
2018-07-17T06:48:00.807Z,22.00
2018-07-17T06:48:33.722Z,22.00
2018-07-17T06:49:06.507Z,22.00
2018-07-17T06:49:39.239Z,22.00
2018-07-17T06:50:12.026Z,22.00
2018-07-17T06:50:44.672Z,22.00
2018-07-17T06:51:17.310Z,22.00
2018-07-17T06:51:49.971Z,22.00
2018-07-17T06:52:22.661Z,22.00
2018-07-17T06:52:55.326Z,22.00
2018-07-17T06:53:29.042Z,22.00
2018-07-17T06:54:01.843Z,22.00
2018-07-17T06:54:34.627Z,21.90
2018-07-17T06:55:07.426Z,21.90
2018-07-17T06:55:40.122Z,21.90
2018-07-17T06:56:12.818Z,21.90
2018-07-17T06:56:45.479Z,21.90
2018-07-17T06:57:18.114Z,21.90
2018-07-17T06:57:50.787Z,21.90
2018-07-17T06:58:23.459Z,21.90
2018-07-17T06:58:56.146Z,21.90
2018-07-17T06:59:29.610Z,22.00
2018-07-17T07:00:02.442Z,22.00
2018-07-17T07:00:35.259Z,21.90
2018-07-17T07:01:08.266Z,21.90
2018-07-17T07:01:41.002Z,21.90
2018-07-17T07:02:13.659Z,21.90
2018-07-17T07:02:46.314Z,21.90
2018-07-17T07:03:18.983Z,21.90
2018-07-17T07:03:51.667Z,22.00
2018-07-17T07:04:24.354Z,22.00
2018-07-17T07:04:57.913Z,22.00
2018-07-17T07:05:30.799Z,22.00
2018-07-17T07:06:03.949Z,22.00
2018-07-17T07:06:36.884Z,22.00
2018-07-17T07:07:09.567Z,22.00
2018-07-17T07:07:42.247Z,22.00
2018-07-17T07:08:14.914Z,22.00
2018-07-17T07:08:47.588Z,22.10
2018-07-17T07:09:20.258Z,22.10
2018-07-17T07:09:52.910Z,22.10
2018-07-17T07:10:25.623Z,22.10
2018-07-17T07:10:58.395Z,22.10
2018-07-17T07:11:31.494Z,22.10
2018-07-17T07:12:04.594Z,22.20